AirNav   Everest Fuels
 
 608 users online  

3VA8 Garner Airport
Windsor, Virginia, USA

GOING TO WINDSOR?


FAA INFORMATION EFFECTIVE 07 NOVEMBER 2019

Location

FAA Identifier: 3VA8
Lat/Long: 36-51-22.5370N 076-40-55.8410W
36-51.375617N 076-40.930683W
36.8562603,-76.6821781
(estimated)
Elevation: 80 ft. / 24.4 m (surveyed)
Variation: 09W (1985)
From city: 5 miles NE of WINDSOR, VA
Time zone: UTC -5 (UTC -4 during Daylight Saving Time)
Zip code: 23487

Airport Operations

Airport use: Private use. Permission required prior to landing
Activation date: 06/1970
Control tower: no
ARTCC: WASHINGTON CENTER
FSS: LEESBURG FLIGHT SERVICE STATION
Attendance: UNATNDD
Wind indicator: yes
Segmented circle: no

Airport Communications

WX AWOS-3 at SFQ (11 nm S): 119.375 (757-934-3942)
WX AWOS-3PT at PVG (12 nm E): 118.375 (757-465-2175)
WX AWOS-3PT at FKN (14 nm SW): 124.675 (757-562-8765)
WX ASOS at AKQ (17 nm NW): 128.325 (757-899-2300)
WX ASOS at PHF (19 nm NE): PHONE 757-874-3682

Nearby radio navigation aids

VOR radial/distance  VOR name  Freq  Var
FKNr071/18.0FRANKLIN VORTAC110.6009W
ORFr272/23.2NORFOLK VORTAC116.9007W
CVIr026/30.4COFIELD VORTAC114.6009W
HPWr150/35.1HOPEWELL VORTAC112.0006W
HCMr185/35.6HARCUM VORTAC108.8007W

 
NDB name  Hdg/Dist  Freq  Var  ID
WAKEFIELD127/17.127411WAKQ .- -.- --.-

Airport Services

Airframe service: NONE
Powerplant service: NONE

Runway Information

Runway N/S

Dimensions: 2600 x 75 ft. / 792 x 23 m
Surface: turf
RUNWAY N  RUNWAY S
Traffic pattern: leftleft

Airport Ownership and Management from official FAA records

Ownership: Privately-owned
Owner: TIDEWATER SOARING FOUNDATION
1400 MAQRUDER RD
SMITHFIELD, VA 23430
Phone 757-357-2360
Manager: WILLIAM E. LAINE, JR
1400 MAQRUDER RD
SMITHFIELD, VA 23430
Phone 757-357-2360
WEEKENDS ONLY.

Airport Operational Statistics

Aircraft based on the field: 27
Single engine airplanes: 2
Gliders airplanes: 25
    

Additional Remarks

GLDR OPS ON WKENDS. 123.3
TO OBTAIN LNDG PMSN CALL W.E. LAINE, JR., 757-377-6174 (NIGHTS & WKENDS & DAYS).
FOR CD CTC NORFOLK APCH AT 757-464-0757.

Instrument Procedures

There are no published instrument procedures at 3VA8.

Some nearby airports with instrument procedures:

KSFQ - Suffolk Executive Airport (11 nm S)
KPVG - Hampton Roads Executive Airport (12 nm E)
KFKN - Franklin Regional Airport (14 nm SW)
KFAF - Felker Army Airfield (17 nm N)
KAKQ - Wakefield Municipal Airport (17 nm NW)
KPHF - Newport News/Williamsburg International Airport (19 nm NE)
KNGU - Norfolk Naval Station (Chambers Field) (19 nm E)
 
Loc | Ops | Rwys | IFR | FBO | Links
Com | Nav | Svcs | Stats | Notes
Area around 3VA8 (Garner Airport)
 
Road maps at: MapQuest Bing Google
 
Aerial photo
WARNING: Photo may not be current or correct
Aerial photo of 3VA8 (Garner Airport)
Photo taken 01-May-2018
looking west.

Do you have a better or more recent aerial photo of Garner Airport that you would like to share? If so, please send us your photo.

 
Sectional chart

 
Airport distance calculator
Flying to Garner Airport? Find the distance to fly.

From to 3VA8

Sunrise and sunset
Times for 20-Nov-2019
 Local
(UTC-5)
 Zulu
(UTC)
Morning civil twilight06:2311:23
Sunrise06:5111:51
Sunset16:5421:54
Evening civil twilight17:2222:22

Current date and time
Zulu (UTC)  20-Nov-2019 05:07:04
Local (UTC-5)  20-Nov-2019 00:07:04
 
METAR
KSFQ 
11nm S 
200455Z AUTO 00000KT 7SM CLR 06/06 A2989 RMK AO2 T00630063 400910061
KPVG 
12nm E 
200456Z AUTO 00000KT 3SM BR FEW055 04/04 A2990 RMK AO2 SLP124 T00390039 PNO $
KFKN 
14nm SW 
200435Z AUTO 00000KT 7SM CLR 05/04 A2990 RMK AO2 T00460043
KFAF 
16nm N 
200456Z AUTO 00000KT 10SM FEW060 OVC120 06/05 A2987 RMK AO2 SLP118 T00640046 400850063 $
KAKQ 
17nm NW 
200454Z AUTO 00000KT 2 1/2SM BR SCT050 OVC060 06/05 A2990 RMK AO2 SLP125 T00610050 400830050
KPHF 
19nm NE 
200454Z AUTO 22004KT 6SM BR CLR 07/04 A2989 RMK AO2 SLP121 T00670044 400940067
KLFI 
20nm NE 
200456Z 27004KT 8SM OVC120 07/07 A2988 RMK AO2A SLP125 T00650065 400900064
KNGU 
20nm E 
200459Z 26003KT 6SM BR FEW075 OVC140 08/06 A2989 RMK AO2 SLP123 T00780061 400890067
KCPK 
21nm SE 
200435Z AUTO 00000KT 7SM BKN080 06/06 A2989 RMK AO2 T00600055
TAF
KFAF 
16nm N 
191900Z 1919/2101 26006KT 9999 OVC008 QNH2986INS BECMG 1919/1920 25012KT 9999 SCT010 BKN020 QNH2985INS BECMG 2012/2013 34010G20KT 9999 BKN020 QNH2992INS TX11/2002Z TN08/2015Z LAST NO AMDS AFT 2004 NEXT 2011
KPHF 
19nm NE 
192203Z 1922/2018 22003KT P6SM SCT010 BKN150 FM200000 VRB03KT P6SM BKN040 FM200800 32004KT P6SM BKN070 FM201100 34005KT P6SM SCT120 FM201500 33009KT P6SM SCT060
KLFI 
20nm NE 
200200Z 2002/2108 VRB06KT 9999 SCT070 OVC120 QNH2988INS BECMG 2004/2005 29006KT 9999 OVC060 QNH2988INS BECMG 2009/2010 33006KT 9999 OVC030 QNH2990INS BECMG 2014/2015 33015G25KT 9999 SCT040 QNH3002INS TX12/2019Z TN06/2009Z
NOTAMs
Click for the latest NOTAMs
NOTAMs are issued by the DoD/FAA and will open in a separate window not controlled by AirNav.

 

 
 

Would you like to see your business listed on this page?

 If your business provides an interesting product or service to pilots, flight crews, aircraft, or users of the Garner Airport, you should consider listing it here.  To start the listing process, click on the button below
 
Add a business
 

Other Pages about Garner Airport

Update a link
 
Copyright © AirNav, LLC. All rights reserved. Privacy Policy  Contact